sensor_id;sensor_type;location;lat;lon;timestamp;P1;durP1;ratioP1;P2;durP2;ratioP2
70169;SDS011;57543;45.442;9.212;2022-07-06T00:00:48;11.73;;;6.22;;
70169;SDS011;57543;45.442;9.212;2022-07-06T00:03:52;10.48;;;6.40;;
70169;SDS011;57543;45.442;9.212;2022-07-06T00:06:56;11.15;;;5.35;;
70169;SDS011;57543;45.442;9.212;2022-07-06T00:10:00;9.98;;;5.35;;
70169;SDS011;57543;45.442;9.212;2022-07-06T00:13:04;9.57;;;4.35;;
70169;SDS011;57543;45.442;9.212;2022-07-06T00:16:08;9.38;;;5.00;;
70169;SDS011;57543;45.442;9.212;2022-07-06T00:19:12;5.97;;;3.80;;
70169;SDS011;57543;45.442;9.212;2022-07-06T00:22:16;8.30;;;4.60;;
70169;SDS011;57543;45.442;9.212;2022-07-06T00:25:19;8.23;;;3.70;;
70169;SDS011;57543;45.442;9.212;2022-07-06T00:28:23;11.30;;;5.18;;
70169;SDS011;57543;45.442;9.212;2022-07-06T00:31:27;9.45;;;4.43;;
70169;SDS011;57543;45.442;9.212;2022-07-06T00:34:31;8.55;;;3.40;;
70169;SDS011;57543;45.442;9.212;2022-07-06T00:37:35;6.03;;;3.40;;
70169;SDS011;57543;45.442;9.212;2022-07-06T00:40:39;6.47;;;3.70;;
70169;SDS011;57543;45.442;9.212;2022-07-06T00:43:53;6.60;;;3.55;;
70169;SDS011;57543;45.442;9.212;2022-07-06T00:46:59;7.80;;;3.60;;
70169;SDS011;57543;45.442;9.212;2022-07-06T00:50:03;8.07;;;3.30;;
70169;SDS011;57543;45.442;9.212;2022-07-06T00:53:18;8.40;;;4.18;;
70169;SDS011;57543;45.442;9.212;2022-07-06T00:56:22;6.82;;;3.55;;
70169;SDS011;57543;45.442;9.212;2022-07-06T00:59:27;6.97;;;3.92;;
70169;SDS011;57543;45.442;9.212;2022-07-06T01:02:31;8.20;;;3.73;;
70169;SDS011;57543;45.442;9.212;2022-07-06T01:05:36;6.38;;;3.72;;
70169;SDS011;57543;45.442;9.212;2022-07-06T01:08:40;5.55;;;3.10;;
70169;SDS011;57543;45.442;9.212;2022-07-06T01:11:44;5.82;;;2.88;;
70169;SDS011;57543;45.442;9.212;2022-07-06T01:14:48;8.65;;;3.42;;
70169;SDS011;57543;45.442;9.212;2022-07-06T01:17:53;5.03;;;3.17;;
70169;SDS011;57543;45.442;9.212;2022-07-06T01:21:09;8.77;;;3.05;;
70169;SDS011;57543;45.442;9.212;2022-07-06T01:24:14;6.28;;;3.22;;
70169;SDS011;57543;45.442;9.212;2022-07-06T01:27:17;8.85;;;3.58;;
70169;SDS011;57543;45.442;9.212;2022-07-06T01:30:22;5.95;;;3.25;;
70169;SDS011;57543;45.442;9.212;2022-07-06T01:33:26;7.53;;;3.00;;
70169;SDS011;57543;45.442;9.212;2022-07-06T01:36:30;7.47;;;3.30;;
70169;SDS011;57543;45.442;9.212;2022-07-06T01:39:33;7.68;;;3.58;;
70169;SDS011;57543;45.442;9.212;2022-07-06T01:42:38;6.65;;;3.60;;
70169;SDS011;57543;45.442;9.212;2022-07-06T01:45:43;7.00;;;3.30;;
70169;SDS011;57543;45.442;9.212;2022-07-06T01:48:47;7.67;;;3.03;;
70169;SDS011;57543;45.442;9.212;2022-07-06T01:51:51;7.18;;;3.00;;
70169;SDS011;57543;45.442;9.212;2022-07-06T01:54:57;9.45;;;3.28;;
70169;SDS011;57543;45.442;9.212;2022-07-06T01:58:01;5.55;;;3.47;;
70169;SDS011;57543;45.442;9.212;2022-07-06T02:01:13;6.35;;;3.45;;
70169;SDS011;57543;45.442;9.212;2022-07-06T02:04:22;9.87;;;3.50;;
70169;SDS011;57543;45.442;9.212;2022-07-06T02:07:26;6.55;;;3.67;;
70169;SDS011;57543;45.442;9.212;2022-07-06T02:10:29;7.38;;;3.05;;
70169;SDS011;57543;45.442;9.212;2022-07-06T02:13:33;6.93;;;3.30;;
70169;SDS011;57543;45.442;9.212;2022-07-06T02:16:39;9.30;;;3.35;;
70169;SDS011;57543;45.442;9.212;2022-07-06T02:19:43;5.43;;;3.47;;
70169;SDS011;57543;45.442;9.212;2022-07-06T02:22:47;7.10;;;3.58;;
70169;SDS011;57543;45.442;9.212;2022-07-06T02:25:50;6.03;;;3.20;;
70169;SDS011;57543;45.442;9.212;2022-07-06T02:28:54;6.00;;;2.60;;
70169;SDS011;57543;45.442;9.212;2022-07-06T02:31:59;5.68;;;2.70;;
70169;SDS011;57543;45.442;9.212;2022-07-06T02:35:03;4.50;;;2.67;;
70169;SDS011;57543;45.442;9.212;2022-07-06T02:38:06;5.70;;;2.55;;
70169;SDS011;57543;45.442;9.212;2022-07-06T02:41:10;5.13;;;2.83;;
70169;SDS011;57543;45.442;9.212;2022-07-06T02:44:14;6.70;;;2.90;;
70169;SDS011;57543;45.442;9.212;2022-07-06T02:47:18;5.18;;;2.88;;
70169;SDS011;57543;45.442;9.212;2022-07-06T02:50:21;8.80;;;3.00;;
70169;SDS011;57543;45.442;9.212;2022-07-06T02:53:26;7.07;;;3.17;;
70169;SDS011;57543;45.442;9.212;2022-07-06T02:56:32;6.28;;;3.17;;
70169;SDS011;57543;45.442;9.212;2022-07-06T02:59:37;6.10;;;2.67;;
70169;SDS011;57543;45.442;9.212;2022-07-06T03:02:41;6.05;;;2.90;;
70169;SDS011;57543;45.442;9.212;2022-07-06T03:05:46;6.57;;;2.47;;
70169;SDS011;57543;45.442;9.212;2022-07-06T03:08:52;7.22;;;3.17;;
70169;SDS011;57543;45.442;9.212;2022-07-06T03:11:56;4.97;;;2.50;;
70169;SDS011;57543;45.442;9.212;2022-07-06T03:15:00;5.32;;;2.40;;
70169;SDS011;57543;45.442;9.212;2022-07-06T03:18:06;4.80;;;2.55;;
70169;SDS011;57543;45.442;9.212;2022-07-06T03:21:11;4.87;;;2.50;;
70169;SDS011;57543;45.442;9.212;2022-07-06T03:24:15;6.13;;;2.55;;
70169;SDS011;57543;45.442;9.212;2022-07-06T03:27:19;4.90;;;2.58;;
70169;SDS011;57543;45.442;9.212;2022-07-06T03:30:23;6.05;;;2.50;;
70169;SDS011;57543;45.442;9.212;2022-07-06T03:33:31;4.35;;;2.58;;
70169;SDS011;57543;45.442;9.212;2022-07-06T03:36:35;6.73;;;2.33;;
70169;SDS011;57543;45.442;9.212;2022-07-06T03:39:40;3.85;;;2.38;;
70169;SDS011;57543;45.442;9.212;2022-07-06T03:42:45;4.30;;;2.50;;
70169;SDS011;57543;45.442;9.212;2022-07-06T03:45:49;4.00;;;2.05;;
70169;SDS011;57543;45.442;9.212;2022-07-06T03:48:53;4.95;;;2.45;;
70169;SDS011;57543;45.442;9.212;2022-07-06T03:51:57;4.67;;;2.27;;
70169;SDS011;57543;45.442;9.212;2022-07-06T03:55:02;5.07;;;2.20;;
70169;SDS011;57543;45.442;9.212;2022-07-06T03:58:08;5.30;;;2.50;;
70169;SDS011;57543;45.442;9.212;2022-07-06T04:01:14;5.47;;;2.30;;
70169;SDS011;57543;45.442;9.212;2022-07-06T04:04:18;4.65;;;2.42;;
70169;SDS011;57543;45.442;9.212;2022-07-06T04:07:25;5.53;;;1.90;;
70169;SDS011;57543;45.442;9.212;2022-07-06T04:10:29;4.68;;;2.20;;
70169;SDS011;57543;45.442;9.212;2022-07-06T04:13:34;3.95;;;2.15;;
70169;SDS011;57543;45.442;9.212;2022-07-06T04:16:39;4.82;;;2.35;;
70169;SDS011;57543;45.442;9.212;2022-07-06T04:19:44;4.57;;;2.22;;
70169;SDS011;57543;45.442;9.212;2022-07-06T04:22:48;5.07;;;2.33;;
70169;SDS011;57543;45.442;9.212;2022-07-06T04:25:53;5.45;;;2.30;;
70169;SDS011;57543;45.442;9.212;2022-07-06T04:28:57;4.75;;;2.10;;
70169;SDS011;57543;45.442;9.212;2022-07-06T04:32:03;7.30;;;2.13;;
70169;SDS011;57543;45.442;9.212;2022-07-06T04:35:08;4.32;;;2.10;;
70169;SDS011;57543;45.442;9.212;2022-07-06T04:38:12;5.57;;;2.30;;
70169;SDS011;57543;45.442;9.212;2022-07-06T04:41:17;4.30;;;1.90;;
70169;SDS011;57543;45.442;9.212;2022-07-06T04:44:21;4.57;;;2.10;;
70169;SDS011;57543;45.442;9.212;2022-07-06T04:47:25;4.10;;;2.22;;
70169;SDS011;57543;45.442;9.212;2022-07-06T04:50:29;4.90;;;2.25;;
70169;SDS011;57543;45.442;9.212;2022-07-06T04:53:37;6.03;;;2.30;;
70169;SDS011;57543;45.442;9.212;2022-07-06T04:56:40;5.32;;;2.20;;
70169;SDS011;57543;45.442;9.212;2022-07-06T04:59:44;6.45;;;2.30;;
70169;SDS011;57543;45.442;9.212;2022-07-06T05:02:48;5.97;;;2.05;;
70169;SDS011;57543;45.442;9.212;2022-07-06T05:05:53;6.38;;;2.25;;
70169;SDS011;57543;45.442;9.212;2022-07-06T05:08:57;4.60;;;2.00;;
70169;SDS011;57543;45.442;9.212;2022-07-06T05:12:02;3.63;;;1.88;;
70169;SDS011;57543;45.442;9.212;2022-07-06T05:15:07;6.93;;;2.10;;
70169;SDS011;57543;45.442;9.212;2022-07-06T05:18:12;3.67;;;2.10;;
70169;SDS011;57543;45.442;9.212;2022-07-06T05:21:18;3.47;;;1.95;;
70169;SDS011;57543;45.442;9.212;2022-07-06T05:24:22;6.80;;;2.67;;
70169;SDS011;57543;45.442;9.212;2022-07-06T05:27:27;4.70;;;2.53;;
70169;SDS011;57543;45.442;9.212;2022-07-06T05:30:31;4.00;;;2.15;;
70169;SDS011;57543;45.442;9.212;2022-07-06T05:33:35;3.67;;;2.00;;
70169;SDS011;57543;45.442;9.212;2022-07-06T05:36:39;4.60;;;2.00;;
70169;SDS011;57543;45.442;9.212;2022-07-06T05:39:43;3.80;;;2.00;;
70169;SDS011;57543;45.442;9.212;2022-07-06T05:42:49;7.40;;;2.05;;
70169;SDS011;57543;45.442;9.212;2022-07-06T05:45:54;4.78;;;2.00;;
70169;SDS011;57543;45.442;9.212;2022-07-06T05:48:59;4.30;;;2.05;;
70169;SDS011;57543;45.442;9.212;2022-07-06T05:52:22;4.28;;;1.73;;
70169;SDS011;57543;45.442;9.212;2022-07-06T05:55:26;6.50;;;2.50;;
70169;SDS011;57543;45.442;9.212;2022-07-06T05:58:31;4.32;;;1.92;;
70169;SDS011;57543;45.442;9.212;2022-07-06T06:01:36;4.80;;;2.30;;
70169;SDS011;57543;45.442;9.212;2022-07-06T06:04:46;5.88;;;2.40;;
70169;SDS011;57543;45.442;9.212;2022-07-06T06:07:50;5.97;;;2.35;;
70169;SDS011;57543;45.442;9.212;2022-07-06T06:10:58;4.47;;;2.03;;
70169;SDS011;57543;45.442;9.212;2022-07-06T06:14:03;5.07;;;2.38;;
70169;SDS011;57543;45.442;9.212;2022-07-06T06:17:07;7.70;;;2.30;;
70169;SDS011;57543;45.442;9.212;2022-07-06T06:20:13;6.22;;;2.60;;
70169;SDS011;57543;45.442;9.212;2022-07-06T06:23:18;5.13;;;2.30;;
70169;SDS011;57543;45.442;9.212;2022-07-06T06:26:22;5.38;;;2.45;;
70169;SDS011;57543;45.442;9.212;2022-07-06T06:29:26;4.63;;;2.15;;
70169;SDS011;57543;45.442;9.212;2022-07-06T06:32:29;5.75;;;2.90;;
70169;SDS011;57543;45.442;9.212;2022-07-06T06:35:33;4.53;;;2.40;;
70169;SDS011;57543;45.442;9.212;2022-07-06T06:38:37;5.90;;;2.53;;
70169;SDS011;57543;45.442;9.212;2022-07-06T06:41:41;4.90;;;2.60;;
70169;SDS011;57543;45.442;9.212;2022-07-06T06:44:44;5.72;;;2.60;;
70169;SDS011;57543;45.442;9.212;2022-07-06T06:47:48;6.15;;;4.05;;
70169;SDS011;57543;45.442;9.212;2022-07-06T06:50:53;8.18;;;2.80;;
70169;SDS011;57543;45.442;9.212;2022-07-06T06:53:57;7.85;;;3.17;;
70169;SDS011;57543;45.442;9.212;2022-07-06T06:57:01;4.63;;;2.40;;
70169;SDS011;57543;45.442;9.212;2022-07-06T07:00:04;6.30;;;2.50;;
70169;SDS011;57543;45.442;9.212;2022-07-06T07:03:09;7.35;;;2.40;;
70169;SDS011;57543;45.442;9.212;2022-07-06T07:06:13;6.93;;;2.40;;
70169;SDS011;57543;45.442;9.212;2022-07-06T07:09:17;6.22;;;2.28;;
70169;SDS011;57543;45.442;9.212;2022-07-06T07:12:21;9.00;;;3.05;;
70169;SDS011;57543;45.442;9.212;2022-07-06T07:15:25;6.50;;;2.63;;
70169;SDS011;57543;45.442;9.212;2022-07-06T07:18:29;6.53;;;2.95;;
70169;SDS011;57543;45.442;9.212;2022-07-06T07:21:33;7.65;;;3.20;;
70169;SDS011;57543;45.442;9.212;2022-07-06T07:24:36;4.80;;;2.50;;
70169;SDS011;57543;45.442;9.212;2022-07-06T07:27:40;4.68;;;2.20;;
70169;SDS011;57543;45.442;9.212;2022-07-06T07:30:44;5.53;;;2.60;;
70169;SDS011;57543;45.442;9.212;2022-07-06T07:33:48;6.55;;;2.30;;
70169;SDS011;57543;45.442;9.212;2022-07-06T07:36:52;5.78;;;2.22;;
70169;SDS011;57543;45.442;9.212;2022-07-06T07:39:55;5.38;;;2.40;;
70169;SDS011;57543;45.442;9.212;2022-07-06T07:42:59;5.13;;;2.30;;
70169;SDS011;57543;45.442;9.212;2022-07-06T07:46:03;5.82;;;2.40;;
70169;SDS011;57543;45.442;9.212;2022-07-06T07:49:07;5.40;;;2.40;;
70169;SDS011;57543;45.442;9.212;2022-07-06T07:52:12;5.60;;;2.58;;
70169;SDS011;57543;45.442;9.212;2022-07-06T07:55:16;4.22;;;2.53;;
70169;SDS011;57543;45.442;9.212;2022-07-06T07:58:20;5.27;;;2.60;;
70169;SDS011;57543;45.442;9.212;2022-07-06T08:01:24;4.22;;;2.35;;
70169;SDS011;57543;45.442;9.212;2022-07-06T08:04:28;4.20;;;2.35;;
70169;SDS011;57543;45.442;9.212;2022-07-06T08:07:32;6.18;;;2.30;;
70169;SDS011;57543;45.442;9.212;2022-07-06T08:10:36;5.97;;;3.08;;
70169;SDS011;57543;45.442;9.212;2022-07-06T08:13:40;5.43;;;2.43;;
70169;SDS011;57543;45.442;9.212;2022-07-06T08:16:44;5.85;;;2.35;;
70169;SDS011;57543;45.442;9.212;2022-07-06T08:19:47;5.20;;;2.60;;
70169;SDS011;57543;45.442;9.212;2022-07-06T08:22:51;6.47;;;2.40;;
70169;SDS011;57543;45.442;9.212;2022-07-06T08:25:56;8.73;;;2.50;;
70169;SDS011;57543;45.442;9.212;2022-07-06T08:29:00;4.78;;;2.50;;
70169;SDS011;57543;45.442;9.212;2022-07-06T08:32:06;6.80;;;2.85;;
70169;SDS011;57543;45.442;9.212;2022-07-06T08:35:10;6.30;;;2.63;;
70169;SDS011;57543;45.442;9.212;2022-07-06T08:38:13;4.57;;;2.30;;
70169;SDS011;57543;45.442;9.212;2022-07-06T08:41:17;5.43;;;2.60;;
70169;SDS011;57543;45.442;9.212;2022-07-06T08:44:24;5.37;;;2.40;;
70169;SDS011;57543;45.442;9.212;2022-07-06T08:47:29;5.65;;;2.35;;
70169;SDS011;57543;45.442;9.212;2022-07-06T08:50:34;5.22;;;2.40;;
70169;SDS011;57543;45.442;9.212;2022-07-06T08:53:37;5.18;;;2.20;;
70169;SDS011;57543;45.442;9.212;2022-07-06T08:56:42;4.07;;;1.92;;
70169;SDS011;57543;45.442;9.212;2022-07-06T08:59:46;5.22;;;2.30;;
70169;SDS011;57543;45.442;9.212;2022-07-06T09:02:51;4.03;;;2.10;;
70169;SDS011;57543;45.442;9.212;2022-07-06T09:05:59;4.22;;;1.90;;
70169;SDS011;57543;45.442;9.212;2022-07-06T09:09:05;5.68;;;2.00;;
70169;SDS011;57543;45.442;9.212;2022-07-06T09:12:11;4.28;;;2.22;;
70169;SDS011;57543;45.442;9.212;2022-07-06T09:15:16;4.78;;;2.00;;
70169;SDS011;57543;45.442;9.212;2022-07-06T09:18:23;6.38;;;2.00;;
70169;SDS011;57543;45.442;9.212;2022-07-06T09:21:28;4.38;;;2.05;;
70169;SDS011;57543;45.442;9.212;2022-07-06T09:24:37;4.32;;;2.20;;
70169;SDS011;57543;45.442;9.212;2022-07-06T09:27:46;7.32;;;2.28;;
70169;SDS011;57543;45.442;9.212;2022-07-06T09:30:57;4.15;;;2.20;;
70169;SDS011;57543;45.442;9.212;2022-07-06T09:34:10;4.47;;;2.15;;
70169;SDS011;57543;45.442;9.212;2022-07-06T09:37:14;5.60;;;2.33;;
70169;SDS011;57543;45.442;9.212;2022-07-06T09:40:18;4.53;;;2.10;;
70169;SDS011;57543;45.442;9.212;2022-07-06T09:43:22;5.45;;;2.10;;
70169;SDS011;57543;45.442;9.212;2022-07-06T09:46:27;4.88;;;2.15;;
70169;SDS011;57543;45.442;9.212;2022-07-06T09:49:31;4.72;;;2.28;;
70169;SDS011;57543;45.442;9.212;2022-07-06T09:52:35;5.13;;;2.40;;
70169;SDS011;57543;45.442;9.212;2022-07-06T09:55:46;4.60;;;2.35;;
70169;SDS011;57543;45.442;9.212;2022-07-06T09:58:51;3.88;;;1.90;;
70169;SDS011;57543;45.442;9.212;2022-07-06T10:01:58;5.25;;;2.63;;
70169;SDS011;57543;45.442;9.212;2022-07-06T10:05:10;5.20;;;2.38;;
70169;SDS011;57543;45.442;9.212;2022-07-06T10:08:15;5.53;;;2.20;;
70169;SDS011;57543;45.442;9.212;2022-07-06T10:11:19;3.80;;;2.20;;
70169;SDS011;57543;45.442;9.212;2022-07-06T10:14:25;7.45;;;2.20;;
70169;SDS011;57543;45.442;9.212;2022-07-06T10:17:32;4.82;;;2.10;;
70169;SDS011;57543;45.442;9.212;2022-07-06T10:20:37;5.05;;;2.17;;
70169;SDS011;57543;45.442;9.212;2022-07-06T10:23:41;7.57;;;2.22;;
70169;SDS011;57543;45.442;9.212;2022-07-06T10:26:45;5.20;;;2.05;;
70169;SDS011;57543;45.442;9.212;2022-07-06T10:29:50;5.80;;;2.25;;
70169;SDS011;57543;45.442;9.212;2022-07-06T10:32:54;8.75;;;2.30;;
70169;SDS011;57543;45.442;9.212;2022-07-06T10:36:00;4.95;;;2.20;;
70169;SDS011;57543;45.442;9.212;2022-07-06T10:39:04;3.67;;;2.10;;
70169;SDS011;57543;45.442;9.212;2022-07-06T10:42:43;5.90;;;2.00;;
70169;SDS011;57543;45.442;9.212;2022-07-06T10:48:51;5.15;;;2.20;;
70169;SDS011;57543;45.442;9.212;2022-07-06T10:51:56;6.00;;;2.60;;
70169;SDS011;57543;45.442;9.212;2022-07-06T10:55:00;4.18;;;2.45;;
70169;SDS011;57543;45.442;9.212;2022-07-06T10:58:04;4.82;;;2.35;;
70169;SDS011;57543;45.442;9.212;2022-07-06T11:01:08;4.68;;;2.25;;
70169;SDS011;57543;45.442;9.212;2022-07-06T11:04:13;4.30;;;2.22;;
70169;SDS011;57543;45.442;9.212;2022-07-06T11:07:18;6.13;;;2.10;;
70169;SDS011;57543;45.442;9.212;2022-07-06T11:10:23;4.32;;;2.28;;
70169;SDS011;57543;45.442;9.212;2022-07-06T11:13:27;5.20;;;2.10;;
70169;SDS011;57543;45.442;9.212;2022-07-06T11:16:31;5.78;;;2.20;;
70169;SDS011;57543;45.442;9.212;2022-07-06T11:19:38;4.53;;;2.35;;
70169;SDS011;57543;45.442;9.212;2022-07-06T11:22:50;6.78;;;2.50;;
70169;SDS011;57543;45.442;9.212;2022-07-06T11:25:54;4.90;;;2.33;;
70169;SDS011;57543;45.442;9.212;2022-07-06T11:28:58;5.30;;;2.17;;
70169;SDS011;57543;45.442;9.212;2022-07-06T11:32:04;5.60;;;2.40;;
70169;SDS011;57543;45.442;9.212;2022-07-06T11:35:09;4.70;;;2.45;;
70169;SDS011;57543;45.442;9.212;2022-07-06T11:38:25;4.05;;;2.42;;
70169;SDS011;57543;45.442;9.212;2022-07-06T11:41:29;4.35;;;2.40;;
70169;SDS011;57543;45.442;9.212;2022-07-06T11:44:33;4.35;;;2.40;;
70169;SDS011;57543;45.442;9.212;2022-07-06T11:47:38;3.80;;;2.25;;
70169;SDS011;57543;45.442;9.212;2022-07-06T11:50:42;7.75;;;2.60;;
70169;SDS011;57543;45.442;9.212;2022-07-06T11:53:47;5.55;;;2.20;;
70169;SDS011;57543;45.442;9.212;2022-07-06T11:56:56;4.47;;;2.10;;
70169;SDS011;57543;45.442;9.212;2022-07-06T12:00:04;6.15;;;2.40;;
70169;SDS011;57543;45.442;9.212;2022-07-06T12:03:15;5.25;;;2.42;;
70169;SDS011;57543;45.442;9.212;2022-07-06T12:06:22;6.00;;;2.60;;
70169;SDS011;57543;45.442;9.212;2022-07-06T12:09:31;4.95;;;2.20;;
70169;SDS011;57543;45.442;9.212;2022-07-06T12:12:35;4.88;;;2.40;;
70169;SDS011;57543;45.442;9.212;2022-07-06T12:15:39;4.95;;;2.50;;
70169;SDS011;57543;45.442;9.212;2022-07-06T12:18:43;4.85;;;2.20;;
70169;SDS011;57543;45.442;9.212;2022-07-06T12:21:51;5.63;;;2.28;;
70169;SDS011;57543;45.442;9.212;2022-07-06T12:24:55;5.20;;;2.13;;
70169;SDS011;57543;45.442;9.212;2022-07-06T12:27:59;6.38;;;2.30;;
70169;SDS011;57543;45.442;9.212;2022-07-06T12:31:03;4.22;;;2.22;;
70169;SDS011;57543;45.442;9.212;2022-07-06T12:34:15;4.93;;;2.33;;
70169;SDS011;57543;45.442;9.212;2022-07-06T12:37:28;5.70;;;2.35;;
70169;SDS011;57543;45.442;9.212;2022-07-06T12:40:32;4.70;;;2.33;;
70169;SDS011;57543;45.442;9.212;2022-07-06T12:43:38;4.25;;;2.38;;
70169;SDS011;57543;45.442;9.212;2022-07-06T12:46:44;5.13;;;2.13;;
70169;SDS011;57543;45.442;9.212;2022-07-06T12:49:48;5.15;;;2.95;;
70169;SDS011;57543;45.442;9.212;2022-07-06T12:52:52;4.93;;;2.30;;
70169;SDS011;57543;45.442;9.212;2022-07-06T12:56:11;6.43;;;2.40;;
70169;SDS011;57543;45.442;9.212;2022-07-06T12:59:21;3.95;;;2.10;;
70169;SDS011;57543;45.442;9.212;2022-07-06T13:02:29;3.58;;;2.00;;
70169;SDS011;57543;45.442;9.212;2022-07-06T13:05:34;4.15;;;2.30;;
70169;SDS011;57543;45.442;9.212;2022-07-06T13:08:38;4.30;;;2.40;;
70169;SDS011;57543;45.442;9.212;2022-07-06T13:11:41;6.00;;;2.20;;
70169;SDS011;57543;45.442;9.212;2022-07-06T13:14:45;5.30;;;2.13;;
70169;SDS011;57543;45.442;9.212;2022-07-06T13:17:49;11.00;;;2.65;;
70169;SDS011;57543;45.442;9.212;2022-07-06T13:20:53;5.97;;;2.40;;
70169;SDS011;57543;45.442;9.212;2022-07-06T13:23:56;3.53;;;2.20;;
70169;SDS011;57543;45.442;9.212;2022-07-06T13:26:59;5.13;;;1.92;;
70169;SDS011;57543;45.442;9.212;2022-07-06T13:30:04;4.20;;;2.30;;
70169;SDS011;57543;45.442;9.212;2022-07-06T13:33:08;4.15;;;1.70;;
70169;SDS011;57543;45.442;9.212;2022-07-06T13:36:12;5.25;;;2.45;;
70169;SDS011;57543;45.442;9.212;2022-07-06T13:39:15;3.92;;;2.17;;
70169;SDS011;57543;45.442;9.212;2022-07-06T13:42:19;5.00;;;2.47;;
70169;SDS011;57543;45.442;9.212;2022-07-06T13:45:23;5.25;;;2.35;;
70169;SDS011;57543;45.442;9.212;2022-07-06T13:48:27;5.50;;;1.95;;
70169;SDS011;57543;45.442;9.212;2022-07-06T13:51:30;3.80;;;2.10;;
70169;SDS011;57543;45.442;9.212;2022-07-06T13:54:35;4.50;;;2.13;;
70169;SDS011;57543;45.442;9.212;2022-07-06T13:57:39;4.50;;;2.08;;
70169;SDS011;57543;45.442;9.212;2022-07-06T14:00:45;4.40;;;1.80;;
70169;SDS011;57543;45.442;9.212;2022-07-06T14:03:49;4.88;;;2.10;;
70169;SDS011;57543;45.442;9.212;2022-07-06T14:06:53;7.47;;;2.45;;
70169;SDS011;57543;45.442;9.212;2022-07-06T14:09:57;3.55;;;2.00;;
70169;SDS011;57543;45.442;9.212;2022-07-06T14:13:00;4.40;;;2.00;;
70169;SDS011;57543;45.442;9.212;2022-07-06T14:16:04;4.53;;;1.90;;
70169;SDS011;57543;45.442;9.212;2022-07-06T14:19:08;3.40;;;1.90;;
70169;SDS011;57543;45.442;9.212;2022-07-06T14:22:12;4.10;;;2.20;;
70169;SDS011;57543;45.442;9.212;2022-07-06T14:25:16;5.95;;;2.25;;
70169;SDS011;57543;45.442;9.212;2022-07-06T14:28:20;5.57;;;2.13;;
70169;SDS011;57543;45.442;9.212;2022-07-06T14:31:23;4.22;;;2.22;;
70169;SDS011;57543;45.442;9.212;2022-07-06T14:34:27;4.78;;;2.45;;
70169;SDS011;57543;45.442;9.212;2022-07-06T14:37:31;5.25;;;2.20;;
70169;SDS011;57543;45.442;9.212;2022-07-06T14:40:35;5.80;;;2.20;;
70169;SDS011;57543;45.442;9.212;2022-07-06T14:43:39;3.97;;;2.42;;
70169;SDS011;57543;45.442;9.212;2022-07-06T14:46:43;5.25;;;2.50;;
70169;SDS011;57543;45.442;9.212;2022-07-06T14:49:47;5.13;;;2.33;;
70169;SDS011;57543;45.442;9.212;2022-07-06T14:52:52;7.70;;;2.20;;
70169;SDS011;57543;45.442;9.212;2022-07-06T14:55:56;5.40;;;2.63;;
70169;SDS011;57543;45.442;9.212;2022-07-06T14:59:00;6.00;;;2.30;;
70169;SDS011;57543;45.442;9.212;2022-07-06T15:02:03;4.90;;;2.47;;
70169;SDS011;57543;45.442;9.212;2022-07-06T15:05:07;4.53;;;2.28;;
70169;SDS011;57543;45.442;9.212;2022-07-06T15:08:12;5.68;;;2.38;;
70169;SDS011;57543;45.442;9.212;2022-07-06T15:11:18;4.40;;;2.20;;
70169;SDS011;57543;45.442;9.212;2022-07-06T15:14:22;5.18;;;2.10;;
70169;SDS011;57543;45.442;9.212;2022-07-06T15:17:26;6.20;;;2.35;;
70169;SDS011;57543;45.442;9.212;2022-07-06T15:20:31;5.10;;;2.22;;
70169;SDS011;57543;45.442;9.212;2022-07-06T15:23:36;5.15;;;2.20;;
70169;SDS011;57543;45.442;9.212;2022-07-06T15:26:40;4.93;;;2.35;;
70169;SDS011;57543;45.442;9.212;2022-07-06T15:29:44;4.15;;;2.20;;
70169;SDS011;57543;45.442;9.212;2022-07-06T15:32:48;5.50;;;2.38;;
70169;SDS011;57543;45.442;9.212;2022-07-06T15:35:52;6.05;;;2.40;;
70169;SDS011;57543;45.442;9.212;2022-07-06T15:38:55;6.13;;;2.60;;
70169;SDS011;57543;45.442;9.212;2022-07-06T15:41:59;4.25;;;2.35;;
70169;SDS011;57543;45.442;9.212;2022-07-06T15:45:03;4.65;;;2.70;;
70169;SDS011;57543;45.442;9.212;2022-07-06T15:48:07;6.47;;;2.50;;
70169;SDS011;57543;45.442;9.212;2022-07-06T15:51:11;5.32;;;2.45;;
70169;SDS011;57543;45.442;9.212;2022-07-06T15:54:16;4.72;;;2.50;;
70169;SDS011;57543;45.442;9.212;2022-07-06T15:57:20;5.53;;;2.20;;
70169;SDS011;57543;45.442;9.212;2022-07-06T16:00:24;5.30;;;2.40;;
70169;SDS011;57543;45.442;9.212;2022-07-06T16:03:27;4.30;;;2.40;;
70169;SDS011;57543;45.442;9.212;2022-07-06T16:06:31;5.32;;;2.40;;
70169;SDS011;57543;45.442;9.212;2022-07-06T16:09:35;4.63;;;2.30;;
70169;SDS011;57543;45.442;9.212;2022-07-06T16:12:39;6.28;;;2.22;;
70169;SDS011;57543;45.442;9.212;2022-07-06T16:15:43;4.47;;;2.50;;
70169;SDS011;57543;45.442;9.212;2022-07-06T16:18:47;4.35;;;2.50;;
70169;SDS011;57543;45.442;9.212;2022-07-06T16:21:51;4.68;;;2.40;;
70169;SDS011;57543;45.442;9.212;2022-07-06T16:24:55;6.63;;;2.40;;
70169;SDS011;57543;45.442;9.212;2022-07-06T16:27:59;4.50;;;2.45;;
70169;SDS011;57543;45.442;9.212;2022-07-06T16:31:03;8.85;;;2.40;;
70169;SDS011;57543;45.442;9.212;2022-07-06T16:34:07;6.10;;;2.38;;
70169;SDS011;57543;45.442;9.212;2022-07-06T16:37:10;5.78;;;2.78;;
70169;SDS011;57543;45.442;9.212;2022-07-06T16:40:14;7.32;;;2.60;;
70169;SDS011;57543;45.442;9.212;2022-07-06T16:43:18;4.82;;;2.67;;
70169;SDS011;57543;45.442;9.212;2022-07-06T16:46:22;4.88;;;2.20;;
70169;SDS011;57543;45.442;9.212;2022-07-06T16:49:25;5.68;;;2.75;;
70169;SDS011;57543;45.442;9.212;2022-07-06T16:52:29;5.15;;;2.50;;
70169;SDS011;57543;45.442;9.212;2022-07-06T16:55:33;6.65;;;2.50;;
70169;SDS011;57543;45.442;9.212;2022-07-06T16:58:38;6.93;;;2.50;;
70169;SDS011;57543;45.442;9.212;2022-07-06T17:01:41;5.93;;;2.85;;
70169;SDS011;57543;45.442;9.212;2022-07-06T17:04:45;4.35;;;2.55;;
70169;SDS011;57543;45.442;9.212;2022-07-06T17:07:49;7.10;;;2.50;;
70169;SDS011;57543;45.442;9.212;2022-07-06T17:10:53;5.60;;;2.80;;
70169;SDS011;57543;45.442;9.212;2022-07-06T17:13:57;4.75;;;2.80;;
70169;SDS011;57543;45.442;9.212;2022-07-06T17:17:00;6.63;;;2.83;;
70169;SDS011;57543;45.442;9.212;2022-07-06T17:20:04;6.70;;;2.50;;
70169;SDS011;57543;45.442;9.212;2022-07-06T17:23:08;4.25;;;2.50;;
70169;SDS011;57543;45.442;9.212;2022-07-06T17:26:12;5.63;;;2.95;;
70169;SDS011;57543;45.442;9.212;2022-07-06T17:29:16;5.75;;;2.42;;
70169;SDS011;57543;45.442;9.212;2022-07-06T17:32:20;7.28;;;2.53;;
70169;SDS011;57543;45.442;9.212;2022-07-06T17:35:23;4.68;;;2.38;;
70169;SDS011;57543;45.442;9.212;2022-07-06T17:38:27;5.45;;;2.55;;
70169;SDS011;57543;45.442;9.212;2022-07-06T17:41:31;5.75;;;2.55;;
70169;SDS011;57543;45.442;9.212;2022-07-06T17:44:35;5.18;;;2.42;;
70169;SDS011;57543;45.442;9.212;2022-07-06T17:47:40;6.40;;;2.67;;
70169;SDS011;57543;45.442;9.212;2022-07-06T17:50:43;7.57;;;2.85;;
70169;SDS011;57543;45.442;9.212;2022-07-06T17:53:47;9.52;;;3.20;;
70169;SDS011;57543;45.442;9.212;2022-07-06T17:56:51;9.80;;;3.05;;
70169;SDS011;57543;45.442;9.212;2022-07-06T17:59:55;7.03;;;2.75;;
70169;SDS011;57543;45.442;9.212;2022-07-06T18:02:59;5.00;;;2.67;;
70169;SDS011;57543;45.442;9.212;2022-07-06T18:06:04;6.72;;;2.78;;
70169;SDS011;57543;45.442;9.212;2022-07-06T18:09:08;5.57;;;2.40;;
70169;SDS011;57543;45.442;9.212;2022-07-06T18:12:12;6.32;;;2.60;;
70169;SDS011;57543;45.442;9.212;2022-07-06T18:15:18;6.35;;;2.97;;
70169;SDS011;57543;45.442;9.212;2022-07-06T18:18:22;5.90;;;2.60;;
70169;SDS011;57543;45.442;9.212;2022-07-06T18:21:29;8.02;;;3.88;;
70169;SDS011;57543;45.442;9.212;2022-07-06T18:24:33;9.05;;;4.57;;
70169;SDS011;57543;45.442;9.212;2022-07-06T18:27:37;8.82;;;3.10;;
70169;SDS011;57543;45.442;9.212;2022-07-06T18:30:48;5.90;;;3.00;;
70169;SDS011;57543;45.442;9.212;2022-07-06T18:33:55;6.35;;;2.83;;
70169;SDS011;57543;45.442;9.212;2022-07-06T18:36:59;5.05;;;2.78;;